EST,Max TemperatureF,Mean TemperatureF,Min TemperatureF,Max Dew PointF,MeanDew PointF,Min DewpointF,Max Humidity, Mean Humidity, Min Humidity, Max Sea Level PressureIn, Mean Sea Level PressureIn, Min Sea Level PressureIn, Max VisibilityMiles, Mean VisibilityMiles, Min VisibilityMiles, Max Wind SpeedMPH, Mean Wind SpeedMPH, Max Gust SpeedMPH,PrecipitationIn, CloudCover, Events, WindDirDegrees
2012-11-1,54,48,41,41,38,37,92,69,55,29.57,29.55,29.52,10,9,1,9,2,,0.00,5,Rain,273
2012-11-2,52,48,43,40,36,32,80,65,50,29.63,29.57,29.54,10,9,2,12,4,18,0.00,5,,294
2012-11-3,50,44,38,35,32,30,82,63,48,29.82,29.73,29.64,10,10,10,21,7,28,0.00,4,,310
2012-11-4,48,42,37,32,30,27,76,63,50,29.97,29.89,29.81,10,10,10,16,8,23,0.00,4,,319
2012-11-5,43,36,26,27,21,18,78,54,37,30.16,30.04,29.97,10,10,3,16,9,18,0.00,5,,336
2012-11-6,41,32,23,20,17,12,82,59,31,30.26,30.22,30.17,10,10,6,8,1,,0.00,0,,332
2012-11-7,37,30,24,27,18,10,82,55,33,30.21,30.02,29.84,10,8,2,17,10,28,0.00,5,Snow,9
2012-11-8,38,35,32,36,32,27,93,87,74,29.82,29.75,29.69,10,3,1,33,16,45,0.41,8,Rain-Snow,352
2012-11-9,52,44,36,30,25,19,74,53,27,30.11,29.96,29.80,10,10,10,20,12,24,0.00,2,,317
2012-11-10,52,42,31,32,28,23,92,64,31,30.48,30.30,30.11,10,10,10,15,3,,0.00,1,,334
2012-11-11,61,46,32,42,36,27,93,73,46,30.51,30.46,30.40,10,10,7,8,1,,0.00,3,,0
2012-11-12,66,52,37,56,46,36,100,77,49,30.46,30.37,30.22,10,8,2,9,3,18,0.00,2,,160
2012-11-13,63,50,36,59,46,26,93,81,65,30.45,30.24,30.11,10,8,1,17,6,24,0.19,6,Rain,300
2012-11-14,45,36,27,27,24,21,92,64,39,30.58,30.52,30.46,10,10,8,9,3,,0.00,2,,333
2012-11-15,43,35,27,30,25,21,85,70,49,30.51,30.42,30.34,10,10,10,10,3,,0.00,0,,330
2012-11-16,43,36,29,27,26,23,89,74,45,30.46,30.35,30.32,10,9,1,6,1,,0.00,0,,333
2012-11-17,47,36,26,29,26,23,89,74,41,30.69,30.61,30.46,10,10,10,7,3,,0.00,0,,331
2012-11-18,46,34,22,28,24,19,89,73,44,30.76,30.70,30.66,10,10,8,8,2,,0.00,1,Rain,339
2012-11-19,46,34,22,30,25,19,92,78,50,30.65,30.49,30.31,10,10,10,6,2,,0.00,1,,317
2012-11-20,47,34,22,28,25,19,89,72,44,30.29,30.22,30.17,10,10,10,6,1,,0.00,0,,324
2012-11-21,48,39,30,36,29,25,93,76,48,30.30,30.25,30.20,10,10,8,7,2,,0.00,1,,332
2012-11-22,54,41,28,38,31,27,93,81,49,30.32,30.25,30.14,10,10,7,5,2,,0.00,2,,314
2012-11-23,59,42,26,41,32,24,100,81,42,30.12,29.95,29.64,10,6,0,10,2,,0.00,3,Fog,135
2012-11-24,46,39,32,43,24,13,93,54,37,29.65,29.60,29.55,10,10,10,17,8,32,0.00,3,Rain,296
2012-11-25,36,33,30,22,15,6,67,48,29,29.86,29.76,29.67,10,10,10,15,9,23,0.00,2,,268
2012-11-26,43,34,24,25,21,18,81,62,36,30.26,30.04,29.86,10,10,10,16,4,25,0.00,3,,298
2012-11-27,36,30,23,34,29,19,96,89,73,30.34,30.29,30.25,10,6,2,5,0,,0.02,5,Rain-Snow,335
2012-11-28,37,32,24,32,23,20,93,72,49,30.24,30.19,30.13,10,10,4,8,3,,0.00,4,,341
2012-11-29,41,34,28,24,20,15,78,55,34,30.26,30.19,30.15,10,10,10,13,3,,0.00,2,,272
2012-11-30,34,30,26,27,7,-6,80,43,20,30.59,30.46,30.25,10,10,10,13,7,,0.00,5,,3